createdAt,value
2022-11-16T00:02:12.450Z,101042.44
2022-11-16T00:04:40.169Z,101051.31
2022-11-16T00:07:07.730Z,101047.91
2022-11-16T00:09:35.200Z,101038.28
2022-11-16T00:12:06.098Z,101034.88
2022-11-16T00:14:35.492Z,101021.13
2022-11-16T00:17:03.931Z,101028.03
2022-11-16T00:19:31.572Z,101035.53
2022-11-16T00:21:59.537Z,101026.22
2022-11-16T00:24:26.991Z,101016.25
2022-11-16T00:26:56.241Z,101025.75
2022-11-16T00:29:25.896Z,100960.34
2022-11-16T00:31:54.431Z,101010.56
2022-11-16T00:34:22.828Z,101000.41
2022-11-16T00:36:50.441Z,101009.06
2022-11-16T00:39:19.094Z,101001.69
2022-11-16T00:41:47.689Z,101002.25
2022-11-16T00:44:15.448Z,101007.00
2022-11-16T00:46:42.697Z,100999.16
2022-11-16T00:49:10.644Z,100990.06
2022-11-16T00:51:38.548Z,100994.09
2022-11-16T00:54:08.758Z,100994.03
2022-11-16T00:56:37.734Z,100982.41
2022-11-16T00:59:06.352Z,100991.06
2022-11-16T01:01:33.730Z,100978.16
2022-11-16T01:04:01.252Z,100978.31
2022-11-16T01:06:28.522Z,100966.16
2022-11-16T01:08:55.854Z,100968.75
2022-11-16T01:11:42.540Z,100947.47
2022-11-16T01:14:10.529Z,100946.69
2022-11-16T01:16:38.012Z,100954.03
2022-11-16T01:19:06.379Z,100952.03
2022-11-16T01:21:34.441Z,100956.78
2022-11-16T01:24:02.583Z,100957.00
2022-11-16T01:26:31.376Z,100949.19
2022-11-16T01:28:59.332Z,100944.78
2022-11-16T01:31:29.859Z,100966.97
2022-11-16T01:33:58.611Z,100951.97
2022-11-16T01:36:29.174Z,100954.06
2022-11-16T01:38:59.318Z,100940.00
2022-11-16T01:41:30.780Z,100938.94
2022-11-16T01:44:04.127Z,100918.34
2022-11-16T01:46:39.563Z,100926.16
2022-11-16T01:49:14.795Z,100929.31
2022-11-16T01:51:47.666Z,100913.84
2022-11-16T01:54:16.419Z,100933.66
2022-11-16T01:57:03.328Z,100910.84
2022-11-16T01:59:41.780Z,100919.22
2022-11-16T02:02:16.047Z,100919.44
2022-11-16T02:04:44.358Z,100899.44
2022-11-16T02:08:02.335Z,100905.44
2022-11-16T02:11:00.651Z,100900.16
2022-11-16T02:13:41.018Z,100891.47
2022-11-16T02:16:19.951Z,100888.47
2022-11-16T02:19:12.921Z,100888.69
2022-11-16T02:22:08.418Z,100885.25
2022-11-16T02:25:03.225Z,100881.44
2022-11-16T02:27:48.137Z,100876.22
2022-11-16T02:30:18.403Z,100879.13
2022-11-16T02:32:56.865Z,100874.25
2022-11-16T02:35:27.197Z,100870.75
2022-11-16T02:38:22.868Z,100862.16
2022-11-16T02:40:59.108Z,100868.09
2022-11-16T02:43:37.012Z,100876.63
2022-11-16T02:46:12.610Z,100851.47
2022-11-16T02:48:45.428Z,100860.78
2022-11-16T02:51:14.314Z,100856.50
2022-11-16T02:53:59.733Z,100848.31
2022-11-16T02:56:28.741Z,100819.50
2022-11-16T02:58:58.350Z,100852.34
2022-11-16T03:01:41.666Z,100813.28
2022-11-16T03:04:23.099Z,100841.00
2022-11-16T03:06:51.721Z,100820.78
2022-11-16T03:09:24.070Z,100831.06
2022-11-16T03:12:00.800Z,100833.09
2022-11-16T03:14:51.943Z,100828.16
2022-11-16T03:17:29.220Z,100812.59
2022-11-16T03:20:04.666Z,100825.94
2022-11-16T03:22:47.370Z,100804.81
2022-11-16T03:25:19.379Z,100811.47
2022-11-16T03:27:54.716Z,100801.09
2022-11-16T03:30:25.773Z,100800.09
2022-11-16T03:33:24.705Z,100800.09
2022-11-16T03:36:15.126Z,100801.00
2022-11-16T03:38:45.958Z,100798.50
2022-11-16T03:41:15.087Z,100783.19
2022-11-16T03:43:44.072Z,100777.28
2022-11-16T03:46:12.534Z,100770.63
2022-11-16T03:48:40.810Z,100768.69
2022-11-16T03:51:14.447Z,100772.81
2022-11-16T03:53:42.723Z,100784.06
2022-11-16T03:56:11.339Z,100775.25
2022-11-16T03:58:39.375Z,100767.41
2022-11-16T04:01:06.721Z,100787.91
2022-11-16T04:03:34.663Z,100780.31
2022-11-16T04:06:20.397Z,100773.06
2022-11-16T04:09:06.177Z,100768.31
2022-11-16T04:11:54.415Z,100742.53
2022-11-16T04:14:43.033Z,100765.75
2022-11-16T04:17:33.664Z,100764.31
2022-11-16T04:20:20.567Z,100742.03
2022-11-16T04:23:18.836Z,100765.09
2022-11-16T04:25:48.053Z,100757.84
2022-11-16T04:28:20.217Z,100749.47
2022-11-16T04:31:15.867Z,100767.38
2022-11-16T04:34:09.864Z,100757.66
2022-11-16T04:36:59.663Z,100759.22
2022-11-16T04:39:28.633Z,100757.66
2022-11-16T04:42:14.607Z,100745.13
2022-11-16T04:45:01.955Z,100765.16
2022-11-16T04:47:35.856Z,100761.19
2022-11-16T04:50:03.838Z,100756.47
2022-11-16T04:52:32.009Z,100755.72
2022-11-16T04:54:59.977Z,100731.81
2022-11-16T04:57:28.642Z,100752.25
2022-11-16T04:59:56.808Z,100729.50
2022-11-16T05:02:27.953Z,100749.53
2022-11-16T05:04:58.219Z,100733.13
2022-11-16T05:07:27.777Z,100733.13
2022-11-16T05:10:04.000Z,100725.50
2022-11-16T05:12:31.893Z,100689.34
2022-11-16T05:15:02.365Z,100723.50
2022-11-16T05:17:32.343Z,100735.31
2022-11-16T05:20:19.319Z,100711.97
2022-11-16T05:22:57.952Z,100712.81
2022-11-16T05:25:33.825Z,100715.97
2022-11-16T05:28:05.842Z,100667.25
2022-11-16T05:30:36.554Z,100706.78
2022-11-16T05:33:04.720Z,100722.19
2022-11-16T05:35:35.158Z,100678.47
2022-11-16T05:38:02.553Z,100715.63
2022-11-16T05:40:33.063Z,100707.66
2022-11-16T05:43:01.536Z,100697.50
2022-11-16T05:45:33.320Z,100695.19
2022-11-16T05:48:01.910Z,100710.31
2022-11-16T05:50:29.275Z,100655.50
2022-11-16T05:53:14.783Z,100708.09
2022-11-16T05:55:42.399Z,100716.59
2022-11-16T05:58:10.007Z,100711.53
2022-11-16T06:00:38.115Z,100691.78
2022-11-16T06:03:11.161Z,100686.28
2022-11-16T06:05:40.644Z,100711.13
2022-11-16T06:08:10.198Z,100708.88
2022-11-16T06:10:37.544Z,100708.56
2022-11-16T06:13:05.708Z,100679.16
2022-11-16T06:15:38.345Z,100702.78
2022-11-16T06:18:08.326Z,100712.28
2022-11-16T06:20:38.881Z,100699.22
2022-11-16T06:23:07.723Z,100717.22
2022-11-16T06:25:39.147Z,100716.25
2022-11-16T06:28:08.352Z,100708.53
2022-11-16T06:30:38.534Z,100716.97
2022-11-16T06:33:07.525Z,100688.19
2022-11-16T06:35:34.835Z,100701.88
2022-11-16T06:38:03.128Z,100699.63
2022-11-16T06:40:30.498Z,100701.50
2022-11-16T06:42:58.012Z,100702.06
2022-11-16T06:45:27.859Z,100703.19
2022-11-16T06:47:57.901Z,100702.78
2022-11-16T06:50:25.499Z,100696.88
2022-11-16T06:52:54.147Z,100690.22
2022-11-16T06:55:23.436Z,100690.47
2022-11-16T06:57:50.782Z,100689.50
2022-11-16T07:00:18.618Z,100629.72
2022-11-16T07:02:47.637Z,100682.81
2022-11-16T07:05:18.160Z,100674.44
2022-11-16T07:07:47.284Z,100663.03
2022-11-16T07:10:14.512Z,100671.38
2022-11-16T07:12:42.949Z,100689.66
2022-11-16T07:15:11.173Z,100683.03
2022-11-16T07:17:41.655Z,100647.56
2022-11-16T07:20:09.541Z,100655.00
2022-11-16T07:22:37.698Z,100658.06
2022-11-16T07:25:05.899Z,100615.09
2022-11-16T07:27:33.622Z,100660.47
2022-11-16T07:30:02.319Z,100665.38
2022-11-16T07:32:49.892Z,100627.47
2022-11-16T07:35:32.359Z,100665.03
2022-11-16T07:38:00.668Z,100658.09
2022-11-16T07:40:27.967Z,100656.72
2022-11-16T07:42:58.797Z,100648.06
2022-11-16T07:45:53.328Z,100632.66
2022-11-16T07:48:20.473Z,100645.59
2022-11-16T07:51:09.221Z,100646.09
2022-11-16T07:53:41.854Z,100641.81
2022-11-16T07:56:10.402Z,100636.56
2022-11-16T07:58:38.193Z,100632.34
2022-11-16T08:01:07.744Z,100648.03
2022-11-16T08:03:36.317Z,100617.13
2022-11-16T08:06:17.000Z,100629.66
2022-11-16T08:08:44.984Z,100623.97
2022-11-16T08:11:14.079Z,100633.78
2022-11-16T08:13:43.041Z,100637.72
2022-11-16T08:16:19.758Z,100623.34
2022-11-16T08:18:50.057Z,100615.88
2022-11-16T08:21:19.217Z,100632.13
2022-11-16T08:23:47.232Z,100622.69
2022-11-16T08:26:22.042Z,100607.00
2022-11-16T08:29:04.439Z,100592.44
2022-11-16T08:31:35.396Z,100612.66
2022-11-16T08:34:14.395Z,100605.19
2022-11-16T08:36:45.091Z,100607.44
2022-11-16T08:39:13.402Z,100603.38
2022-11-16T08:41:42.402Z,100580.03
2022-11-16T08:44:11.240Z,100604.16
2022-11-16T08:46:41.370Z,100577.63
2022-11-16T08:49:49.738Z,100603.00
2022-11-16T08:52:19.143Z,100600.81
2022-11-16T08:54:47.652Z,100603.59
2022-11-16T08:57:16.568Z,100583.03
2022-11-16T08:59:45.672Z,100596.06
2022-11-16T09:02:14.730Z,100597.19
2022-11-16T09:04:42.478Z,100592.16
2022-11-16T09:07:10.495Z,100583.81
2022-11-16T09:09:37.676Z,100577.81
2022-11-16T09:14:49.679Z,100585.34
2022-11-16T09:17:22.791Z,100575.72
2022-11-16T09:19:50.655Z,100568.94
2022-11-16T09:22:18.135Z,100580.44
2022-11-16T09:24:45.597Z,100557.91
2022-11-16T09:27:13.157Z,100566.47
2022-11-16T09:29:40.800Z,100563.00
2022-11-16T09:32:08.043Z,100542.53
2022-11-16T09:34:37.429Z,100550.41
2022-11-16T09:37:05.870Z,100544.41
2022-11-16T09:42:54.804Z,100543.81
2022-11-16T09:45:30.022Z,100532.78
2022-11-16T09:48:02.978Z,100527.13
2022-11-16T09:53:53.404Z,100523.38
2022-11-16T09:56:23.111Z,100519.31
2022-11-16T09:59:02.988Z,100504.34
2022-11-16T10:01:33.593Z,100513.47
2022-11-16T10:04:07.992Z,100501.81
2022-11-16T10:06:55.390Z,100505.75
2022-11-16T10:09:22.806Z,100488.25
2022-11-16T10:12:20.970Z,100499.47
2022-11-16T10:15:13.141Z,100485.28
2022-11-16T10:18:24.464Z,100485.75
2022-11-16T10:21:25.419Z,100475.81
2022-11-16T10:24:17.511Z,100466.66
2022-11-16T10:27:01.430Z,100458.78
2022-11-16T10:29:43.417Z,100452.94
2022-11-16T10:32:16.978Z,100443.53
2022-11-16T10:34:49.450Z,100450.75
2022-11-16T10:37:16.956Z,100437.06
2022-11-16T10:39:44.416Z,100402.88
2022-11-16T10:42:17.383Z,100428.53
2022-11-16T10:44:56.595Z,100436.75
2022-11-16T10:47:38.767Z,100435.78
2022-11-16T10:50:20.981Z,100421.91
2022-11-16T10:52:48.775Z,100382.38
2022-11-16T10:55:16.357Z,100413.41
2022-11-16T10:58:00.658Z,100407.72
2022-11-16T11:00:40.850Z,100410.44
2022-11-16T11:03:10.907Z,100387.59
2022-11-16T11:05:48.555Z,100400.19
2022-11-16T11:08:30.648Z,100393.56
2022-11-16T11:11:23.811Z,100394.81
2022-11-16T11:14:12.379Z,100382.84
2022-11-16T11:16:41.640Z,100375.59
2022-11-16T11:19:38.383Z,100384.59
2022-11-16T11:22:05.663Z,100371.66
2022-11-16T11:24:48.267Z,100384.84
2022-11-16T11:27:22.529Z,100359.44
2022-11-16T11:29:56.272Z,100362.88
2022-11-16T11:32:30.925Z,100344.88
2022-11-16T11:35:00.462Z,100303.97
2022-11-16T11:37:35.092Z,100333.19
2022-11-16T11:43:23.336Z,100318.38
2022-11-16T11:46:03.531Z,100331.69
2022-11-16T11:48:41.515Z,100320.22
2022-11-16T11:51:15.623Z,100316.75
2022-11-16T11:53:49.831Z,100319.72
2022-11-16T11:56:18.088Z,100312.63
2022-11-16T11:58:48.196Z,100321.31
2022-11-16T12:02:02.608Z,100313.72
2022-11-16T12:04:38.991Z,100308.56
2022-11-16T12:07:33.290Z,100311.72
2022-11-16T12:10:19.148Z,100294.69
2022-11-16T12:12:58.812Z,100297.91
2022-11-16T12:15:35.689Z,100301.22
2022-11-16T12:18:26.222Z,100299.91
2022-11-16T12:21:13.501Z,100294.03
2022-11-16T12:24:29.364Z,100297.13
2022-11-16T12:27:27.169Z,100276.00
2022-11-16T12:30:20.356Z,100281.16
2022-11-16T12:33:38.372Z,100272.28
2022-11-16T12:36:20.683Z,100275.94
2022-11-16T12:39:11.155Z,100253.06
2022-11-16T12:41:59.665Z,100263.06
2022-11-16T12:44:57.629Z,100264.88
2022-11-16T12:47:38.454Z,100244.38
2022-11-16T12:50:20.785Z,100255.28
2022-11-16T12:52:53.968Z,100248.72
2022-11-16T12:55:34.658Z,100241.19
2022-11-16T12:58:20.843Z,100223.03
2022-11-16T13:01:11.241Z,100240.94
2022-11-16T13:03:50.957Z,100242.19
2022-11-16T13:06:31.324Z,100249.56
2022-11-16T13:09:14.470Z,100236.03
2022-11-16T13:11:51.838Z,100234.00
2022-11-16T13:14:29.378Z,100235.47
2022-11-16T13:16:58.417Z,100238.53
2022-11-16T13:19:26.556Z,100225.31
2022-11-16T13:22:31.599Z,100229.63
2022-11-16T13:25:08.048Z,100224.22
2022-11-16T13:27:42.976Z,100221.69
2022-11-16T13:30:29.848Z,100221.97
2022-11-16T13:33:26.928Z,100217.00
2022-11-16T13:35:54.168Z,100219.66
2022-11-16T13:38:51.394Z,100211.91
2022-11-16T13:41:32.237Z,100203.56
2022-11-16T13:44:00.453Z,100213.28
2022-11-16T13:46:57.332Z,100212.41
2022-11-16T13:49:32.780Z,100199.75
2022-11-16T13:52:21.934Z,100216.31
2022-11-16T13:54:55.939Z,100184.75
2022-11-16T13:57:50.906Z,100195.84
2022-11-16T14:00:26.048Z,100197.09
2022-11-16T14:03:17.972Z,100194.91
2022-11-16T14:05:47.588Z,100183.97
2022-11-16T14:08:37.514Z,100176.69
2022-11-16T14:11:26.051Z,100193.44
2022-11-16T14:13:54.229Z,100175.22
2022-11-16T14:16:21.666Z,100183.66
2022-11-16T14:18:53.254Z,100189.63
2022-11-16T14:21:20.500Z,100180.88
2022-11-16T14:23:57.543Z,100183.94
2022-11-16T14:26:59.241Z,100176.88
2022-11-16T14:29:45.096Z,100184.69
2022-11-16T14:32:31.652Z,100180.16
2022-11-16T14:35:01.782Z,100186.66
2022-11-16T14:37:36.453Z,100161.06
2022-11-16T14:40:08.997Z,100164.03
2022-11-16T14:43:09.570Z,100170.75
2022-11-16T14:45:37.249Z,100184.31
2022-11-16T14:48:19.379Z,100162.22
2022-11-16T14:51:05.362Z,100170.16
2022-11-16T14:53:35.739Z,100167.31
2022-11-16T14:56:15.319Z,100172.03
2022-11-16T14:58:53.124Z,100171.31
2022-11-16T15:01:25.695Z,100163.84
2022-11-16T15:04:10.634Z,100152.69
2022-11-16T15:06:51.021Z,100157.06
2022-11-16T15:09:26.423Z,100162.09
2022-11-16T15:12:12.489Z,100159.53
2022-11-16T15:14:50.900Z,100151.97
2022-11-16T15:17:22.224Z,100156.88
2022-11-16T15:20:02.300Z,100166.78
2022-11-16T15:22:32.521Z,100159.63
2022-11-16T15:25:01.556Z,100173.88
2022-11-16T15:27:34.989Z,100163.63
2022-11-16T15:30:03.723Z,100166.97
2022-11-16T15:32:38.073Z,100136.22
2022-11-16T15:35:05.934Z,100169.03
2022-11-16T15:37:33.350Z,100156.78
2022-11-16T15:40:02.694Z,100169.03
2022-11-16T15:42:30.185Z,100159.72
2022-11-16T15:45:01.512Z,100162.38
2022-11-16T15:47:28.987Z,100163.34
2022-11-16T15:49:56.399Z,100130.75
2022-11-16T15:53:02.636Z,100159.59
2022-11-16T15:55:39.547Z,100167.63
2022-11-16T15:58:26.816Z,100139.22
2022-11-16T16:00:55.479Z,100156.25
2022-11-16T16:03:29.514Z,100158.00
2022-11-16T16:05:56.815Z,100115.44
2022-11-16T16:08:39.633Z,100151.63
2022-11-16T16:11:23.998Z,100167.69
2022-11-16T16:14:02.592Z,100152.41
2022-11-16T16:16:38.273Z,100125.50
2022-11-16T16:19:24.628Z,100114.09
2022-11-16T16:21:52.233Z,100059.88
2022-11-16T16:24:44.252Z,100150.44
2022-11-16T16:27:16.024Z,100141.88
2022-11-16T16:29:44.355Z,100152.19
2022-11-16T16:32:20.899Z,100145.72
2022-11-16T16:34:48.265Z,100146.91
2022-11-16T16:37:15.724Z,100124.22
2022-11-16T16:39:42.930Z,100150.47
2022-11-16T16:42:13.368Z,100126.13
2022-11-16T16:44:41.843Z,100139.09
2022-11-16T16:47:10.184Z,100124.63
2022-11-16T16:49:37.741Z,100134.88
2022-11-16T16:52:06.527Z,100135.09
2022-11-16T16:54:34.006Z,100092.19
2022-11-16T16:57:03.998Z,100143.44
2022-11-16T16:59:50.396Z,100135.16
2022-11-16T17:02:17.986Z,100132.03
2022-11-16T17:04:47.083Z,100131.47
2022-11-16T17:07:15.945Z,100127.75
2022-11-16T17:09:43.918Z,100115.59
2022-11-16T17:12:11.231Z,100128.34
2022-11-16T17:14:38.755Z,100127.34
2022-11-16T17:17:05.940Z,100121.66
2022-11-16T17:19:33.367Z,100079.66
2022-11-16T17:22:03.933Z,100110.00
2022-11-16T17:24:34.539Z,100107.16
2022-11-16T17:27:01.654Z,100105.00
2022-11-16T17:29:28.976Z,100102.16
2022-11-16T17:31:56.416Z,100095.38
2022-11-16T17:34:23.948Z,100094.03
2022-11-16T17:36:51.348Z,100101.84
2022-11-16T17:39:37.492Z,100108.56
2022-11-16T17:42:05.398Z,100099.44
2022-11-16T17:44:36.074Z,100079.94
2022-11-16T17:47:03.436Z,100094.34
2022-11-16T17:49:30.533Z,100097.19
2022-11-16T17:51:57.866Z,100104.94
2022-11-16T17:54:25.271Z,100088.53
2022-11-16T17:56:52.705Z,100058.00
2022-11-16T17:59:26.410Z,100046.69
2022-11-16T18:01:57.727Z,100080.50
2022-11-16T18:04:25.141Z,100075.25
2022-11-16T18:06:52.709Z,100061.66
2022-11-16T18:09:20.059Z,100080.66
2022-11-16T18:11:47.485Z,100071.34
2022-11-16T18:14:14.944Z,100065.53
2022-11-16T18:16:43.563Z,100041.22
2022-11-16T18:19:16.468Z,100084.84
2022-11-16T18:21:44.547Z,100099.56
2022-11-16T18:24:12.890Z,100075.59
2022-11-16T18:26:40.808Z,100083.63
2022-11-16T18:29:12.354Z,100080.19
2022-11-16T18:31:42.640Z,100079.41
2022-11-16T18:34:13.392Z,100077.94
2022-11-16T18:36:41.903Z,100067.56
2022-11-16T18:39:09.449Z,100072.53
2022-11-16T18:41:37.210Z,100082.00
2022-11-16T18:44:06.340Z,100080.69
2022-11-16T18:46:34.226Z,100074.13
2022-11-16T18:49:01.903Z,100068.63
2022-11-16T18:51:29.415Z,100077.72
2022-11-16T18:53:57.447Z,100047.22
2022-11-16T18:56:25.437Z,100074.41
2022-11-16T18:58:53.561Z,100071.84
2022-11-16T19:01:23.770Z,100082.81
2022-11-16T19:03:52.494Z,100085.88
2022-11-16T19:06:20.712Z,100093.16
2022-11-16T19:08:54.978Z,100089.31
2022-11-16T19:11:24.084Z,100078.13
2022-11-16T19:14:07.940Z,100074.22
2022-11-16T19:16:37.099Z,100083.63
2022-11-16T19:19:05.112Z,100070.97
2022-11-16T19:21:33.200Z,100065.56
2022-11-16T19:24:01.702Z,100052.91
2022-11-16T19:26:29.283Z,100067.47
2022-11-16T19:28:57.182Z,100020.91
2022-11-16T19:31:29.356Z,100061.50
2022-11-16T19:34:02.030Z,100052.41
2022-11-16T19:36:31.118Z,100047.44
2022-11-16T19:38:59.401Z,100050.06
2022-11-16T19:41:28.219Z,100058.59
2022-11-16T19:43:59.779Z,100059.59
2022-11-16T19:46:30.003Z,100041.16
2022-11-16T19:48:57.852Z,100064.41
2022-11-16T19:51:31.116Z,100043.56
2022-11-16T19:54:00.352Z,100036.19
2022-11-16T19:56:28.615Z,100051.22
2022-11-16T19:58:55.874Z,100055.50
2022-11-16T20:01:29.696Z,100042.47
2022-11-16T20:03:58.041Z,100044.44
2022-11-16T20:06:29.638Z,100052.06
2022-11-16T20:09:01.148Z,100047.31
2022-11-16T20:11:34.275Z,100045.91
2022-11-16T20:14:03.498Z,100034.91
2022-11-16T20:16:38.409Z,100042.19
2022-11-16T20:19:08.559Z,100039.88
2022-11-16T20:21:41.915Z,100032.84
2022-11-16T20:24:16.718Z,100041.34
2022-11-16T20:26:47.248Z,99997.97
2022-11-16T20:29:16.407Z,100022.06
2022-11-16T20:31:45.527Z,100023.72
2022-11-16T20:34:15.312Z,99987.63
2022-11-16T20:36:45.142Z,100033.13
2022-11-16T20:39:14.752Z,100013.38
2022-11-16T20:41:44.232Z,100001.31
2022-11-16T20:44:23.362Z,100010.81
2022-11-16T20:46:52.873Z,100006.78
2022-11-16T20:49:20.228Z,100015.31
2022-11-16T20:51:48.559Z,100004.84
2022-11-16T20:54:15.730Z,100006.78
2022-11-16T20:56:44.716Z,100010.34
2022-11-16T20:59:12.487Z,99997.50
2022-11-16T21:01:41.684Z,100006.97
2022-11-16T21:04:11.261Z,100001.78
2022-11-16T21:06:38.471Z,99996.41
2022-11-16T21:09:05.965Z,99972.09
2022-11-16T21:11:54.303Z,99963.72
2022-11-16T21:14:22.443Z,99977.25
2022-11-16T21:16:49.769Z,99956.09
2022-11-16T21:19:20.307Z,99961.00
2022-11-16T21:21:48.229Z,99915.81
2022-11-16T21:24:15.521Z,99955.59
2022-11-16T21:26:42.902Z,99955.28
2022-11-16T21:29:10.282Z,99969.31
2022-11-16T21:31:37.700Z,99965.22
2022-11-16T21:34:07.635Z,99926.47
2022-11-16T21:36:36.287Z,99943.38
2022-11-16T21:39:03.642Z,99973.13
2022-11-16T21:41:32.020Z,99954.03
2022-11-16T21:43:59.615Z,99957.59
2022-11-16T21:46:28.076Z,99956.38
2022-11-16T21:48:56.800Z,99961.16
2022-11-16T21:51:26.966Z,99952.78
2022-11-16T21:53:55.110Z,99965.25
2022-11-16T21:56:24.830Z,99955.25
2022-11-16T21:58:53.422Z,99948.97
2022-11-16T22:01:22.355Z,99957.00
2022-11-16T22:04:10.022Z,99952.13
2022-11-16T22:06:55.688Z,99953.94
2022-11-16T22:09:23.071Z,99950.81
2022-11-16T22:11:50.219Z,99930.19
2022-11-16T22:14:17.397Z,99947.09
2022-11-16T22:16:44.720Z,99945.59
2022-11-16T22:19:11.946Z,99924.00
2022-11-16T22:21:39.047Z,99933.94
2022-11-16T22:24:07.663Z,99918.13
2022-11-16T22:26:38.264Z,99937.50
2022-11-16T22:29:05.493Z,99939.53
2022-11-16T22:31:33.316Z,99941.00
2022-11-16T22:34:00.694Z,99920.59
2022-11-16T22:36:27.940Z,99928.22
2022-11-16T22:38:57.350Z,99930.94
2022-11-16T22:41:24.652Z,99917.72
2022-11-16T22:43:51.943Z,99917.59
2022-11-16T22:46:19.427Z,99880.94
2022-11-16T22:48:50.603Z,99870.03
2022-11-16T22:51:28.717Z,99888.53
2022-11-16T22:53:57.225Z,99916.28
2022-11-16T22:56:25.794Z,99921.56
2022-11-16T22:58:53.157Z,99914.09
2022-11-16T23:01:21.027Z,99910.06
2022-11-16T23:03:48.771Z,99901.22
2022-11-16T23:06:16.415Z,99891.25
2022-11-16T23:08:43.681Z,99909.59
2022-11-16T23:11:31.131Z,99894.72
2022-11-16T23:14:17.224Z,99909.28
2022-11-16T23:16:45.610Z,99881.31
2022-11-16T23:19:34.380Z,99894.88
2022-11-16T23:22:20.498Z,99872.84
2022-11-16T23:25:06.185Z,99883.63
2022-11-16T23:27:39.178Z,99879.22
2022-11-16T23:30:12.514Z,99879.22
2022-11-16T23:32:41.848Z,99884.22
2022-11-16T23:35:10.440Z,99851.50
2022-11-16T23:37:54.069Z,99868.94
2022-11-16T23:40:23.067Z,99882.41
2022-11-16T23:43:10.405Z,99876.25
2022-11-16T23:45:38.918Z,99868.50
2022-11-16T23:48:10.635Z,99880.00
2022-11-16T23:50:38.207Z,99831.97
2022-11-16T23:53:07.524Z,99888.75
2022-11-16T23:55:38.446Z,99860.94
2022-11-16T23:58:07.035Z,99862.06
